sensor_id;sensor_type;location;lat;lon;timestamp;P1;durP1;ratioP1;P2;durP2;ratioP2
46835;SDS011;32573;51.290;6.926;2022-11-20T00:01:29;6.95;;;3.35;;
46835;SDS011;32573;51.290;6.926;2022-11-20T00:03:57;7.03;;;3.60;;
46835;SDS011;32573;51.290;6.926;2022-11-20T00:06:26;5.55;;;2.83;;
46835;SDS011;32573;51.290;6.926;2022-11-20T00:08:56;7.30;;;3.50;;
46835;SDS011;32573;51.290;6.926;2022-11-20T00:11:27;7.55;;;3.42;;
46835;SDS011;32573;51.290;6.926;2022-11-20T00:13:57;5.82;;;2.95;;
46835;SDS011;32573;51.290;6.926;2022-11-20T00:16:29;7.47;;;3.67;;
46835;SDS011;32573;51.290;6.926;2022-11-20T00:18:59;7.25;;;3.40;;
46835;SDS011;32573;51.290;6.926;2022-11-20T00:21:29;6.80;;;3.33;;
46835;SDS011;32573;51.290;6.926;2022-11-20T00:23:58;6.88;;;3.17;;
46835;SDS011;32573;51.290;6.926;2022-11-20T00:26:27;6.50;;;3.13;;
46835;SDS011;32573;51.290;6.926;2022-11-20T00:28:57;5.75;;;3.08;;
46835;SDS011;32573;51.290;6.926;2022-11-20T00:31:28;7.50;;;3.85;;
46835;SDS011;32573;51.290;6.926;2022-11-20T00:33:57;7.30;;;3.28;;
46835;SDS011;32573;51.290;6.926;2022-11-20T00:36:26;6.25;;;3.20;;
46835;SDS011;32573;51.290;6.926;2022-11-20T00:38:57;7.30;;;3.10;;
46835;SDS011;32573;51.290;6.926;2022-11-20T00:41:27;6.68;;;3.20;;
46835;SDS011;32573;51.290;6.926;2022-11-20T00:43:56;6.15;;;2.90;;
46835;SDS011;32573;51.290;6.926;2022-11-20T00:46:26;6.22;;;2.92;;
46835;SDS011;32573;51.290;6.926;2022-11-20T00:48:56;5.80;;;2.90;;
46835;SDS011;32573;51.290;6.926;2022-11-20T00:51:25;6.15;;;2.72;;
46835;SDS011;32573;51.290;6.926;2022-11-20T00:53:55;5.93;;;3.00;;
46835;SDS011;32573;51.290;6.926;2022-11-20T00:56:24;7.18;;;2.90;;
46835;SDS011;32573;51.290;6.926;2022-11-20T00:58:52;6.13;;;3.00;;
46835;SDS011;32573;51.290;6.926;2022-11-20T01:01:22;5.53;;;2.70;;
46835;SDS011;32573;51.290;6.926;2022-11-20T01:03:53;5.38;;;2.60;;
46835;SDS011;32573;51.290;6.926;2022-11-20T01:06:23;7.25;;;2.85;;
46835;SDS011;32573;51.290;6.926;2022-11-20T01:08:54;5.95;;;2.83;;
46835;SDS011;32573;51.290;6.926;2022-11-20T01:11:25;6.75;;;3.10;;
46835;SDS011;32573;51.290;6.926;2022-11-20T01:13:55;5.45;;;2.72;;
46835;SDS011;32573;51.290;6.926;2022-11-20T01:16:25;5.25;;;2.40;;
46835;SDS011;32573;51.290;6.926;2022-11-20T01:18:57;5.57;;;2.40;;
46835;SDS011;32573;51.290;6.926;2022-11-20T01:21:28;5.43;;;2.63;;
46835;SDS011;32573;51.290;6.926;2022-11-20T01:23:58;5.43;;;2.78;;
46835;SDS011;32573;51.290;6.926;2022-11-20T01:26:27;6.35;;;2.90;;
46835;SDS011;32573;51.290;6.926;2022-11-20T01:28:57;5.53;;;2.75;;
46835;SDS011;32573;51.290;6.926;2022-11-20T01:31:27;6.57;;;3.08;;
46835;SDS011;32573;51.290;6.926;2022-11-20T01:33:58;6.00;;;2.92;;
46835;SDS011;32573;51.290;6.926;2022-11-20T01:36:29;5.63;;;2.80;;
46835;SDS011;32573;51.290;6.926;2022-11-20T01:39:00;6.05;;;2.80;;
46835;SDS011;32573;51.290;6.926;2022-11-20T01:41:31;6.05;;;2.97;;
46835;SDS011;32573;51.290;6.926;2022-11-20T01:44:19;7.18;;;3.33;;
46835;SDS011;32573;51.290;6.926;2022-11-20T01:46:52;7.95;;;3.28;;
46835;SDS011;32573;51.290;6.926;2022-11-20T01:49:26;6.40;;;3.20;;
46835;SDS011;32573;51.290;6.926;2022-11-20T01:52:07;6.95;;;3.20;;
46835;SDS011;32573;51.290;6.926;2022-11-20T01:54:47;7.22;;;2.90;;
46835;SDS011;32573;51.290;6.926;2022-11-20T01:57:20;6.97;;;3.20;;
46835;SDS011;32573;51.290;6.926;2022-11-20T01:59:50;7.15;;;3.33;;
46835;SDS011;32573;51.290;6.926;2022-11-20T02:02:25;7.78;;;3.45;;
46835;SDS011;32573;51.290;6.926;2022-11-20T02:04:55;7.18;;;3.55;;
46835;SDS011;32573;51.290;6.926;2022-11-20T02:07:28;6.93;;;3.33;;
46835;SDS011;32573;51.290;6.926;2022-11-20T02:09:57;7.50;;;3.50;;
46835;SDS011;32573;51.290;6.926;2022-11-20T02:12:26;7.30;;;3.28;;
46835;SDS011;32573;51.290;6.926;2022-11-20T02:15:12;8.07;;;3.50;;
46835;SDS011;32573;51.290;6.926;2022-11-20T02:17:40;7.43;;;3.80;;
46835;SDS011;32573;51.290;6.926;2022-11-20T02:20:10;7.47;;;3.47;;
46835;SDS011;32573;51.290;6.926;2022-11-20T02:22:44;6.60;;;3.40;;
46835;SDS011;32573;51.290;6.926;2022-11-20T02:25:20;7.00;;;3.55;;
46835;SDS011;32573;51.290;6.926;2022-11-20T02:27:49;7.40;;;3.53;;
46835;SDS011;32573;51.290;6.926;2022-11-20T02:30:18;9.00;;;3.83;;
46835;SDS011;32573;51.290;6.926;2022-11-20T02:32:47;6.53;;;3.33;;
46835;SDS011;32573;51.290;6.926;2022-11-20T02:38:09;7.68;;;3.85;;
46835;SDS011;32573;51.290;6.926;2022-11-20T02:40:39;7.30;;;3.72;;
46835;SDS011;32573;51.290;6.926;2022-11-20T02:43:08;7.72;;;3.97;;
46835;SDS011;32573;51.290;6.926;2022-11-20T02:45:37;9.43;;;4.50;;
46835;SDS011;32573;51.290;6.926;2022-11-20T02:48:06;7.65;;;4.00;;
46835;SDS011;32573;51.290;6.926;2022-11-20T02:50:36;8.45;;;3.90;;
46835;SDS011;32573;51.290;6.926;2022-11-20T02:53:06;7.18;;;3.72;;
46835;SDS011;32573;51.290;6.926;2022-11-20T02:55:34;7.43;;;3.72;;
46835;SDS011;32573;51.290;6.926;2022-11-20T02:58:04;8.07;;;4.00;;
46835;SDS011;32573;51.290;6.926;2022-11-20T03:00:33;8.32;;;4.00;;
46835;SDS011;32573;51.290;6.926;2022-11-20T03:03:02;7.90;;;4.00;;
46835;SDS011;32573;51.290;6.926;2022-11-20T03:05:30;7.90;;;4.13;;
46835;SDS011;32573;51.290;6.926;2022-11-20T03:07:59;8.00;;;4.10;;
46835;SDS011;32573;51.290;6.926;2022-11-20T03:10:27;7.53;;;3.72;;
46835;SDS011;32573;51.290;6.926;2022-11-20T03:12:55;7.63;;;3.85;;
46835;SDS011;32573;51.290;6.926;2022-11-20T03:15:25;7.10;;;3.63;;
46835;SDS011;32573;51.290;6.926;2022-11-20T03:17:54;9.57;;;3.90;;
46835;SDS011;32573;51.290;6.926;2022-11-20T03:20:23;7.03;;;3.35;;
46835;SDS011;32573;51.290;6.926;2022-11-20T03:22:53;8.73;;;4.50;;
46835;SDS011;32573;51.290;6.926;2022-11-20T03:25:22;8.70;;;4.30;;
46835;SDS011;32573;51.290;6.926;2022-11-20T03:27:50;7.72;;;4.03;;
46835;SDS011;32573;51.290;6.926;2022-11-20T03:30:19;8.38;;;4.30;;
46835;SDS011;32573;51.290;6.926;2022-11-20T03:32:54;15.60;;;7.07;;
46835;SDS011;32573;51.290;6.926;2022-11-20T03:35:22;11.05;;;5.43;;
46835;SDS011;32573;51.290;6.926;2022-11-20T03:37:50;9.38;;;4.78;;
46835;SDS011;32573;51.290;6.926;2022-11-20T03:40:19;10.38;;;5.03;;
46835;SDS011;32573;51.290;6.926;2022-11-20T03:42:47;10.32;;;5.20;;
46835;SDS011;32573;51.290;6.926;2022-11-20T03:45:16;10.57;;;4.82;;
46835;SDS011;32573;51.290;6.926;2022-11-20T03:47:46;11.43;;;5.50;;
46835;SDS011;32573;51.290;6.926;2022-11-20T03:50:16;10.10;;;4.47;;
46835;SDS011;32573;51.290;6.926;2022-11-20T03:52:44;10.57;;;4.65;;
46835;SDS011;32573;51.290;6.926;2022-11-20T03:55:13;9.10;;;4.60;;
46835;SDS011;32573;51.290;6.926;2022-11-20T03:57:41;8.15;;;4.20;;
46835;SDS011;32573;51.290;6.926;2022-11-20T04:00:10;8.40;;;4.43;;
46835;SDS011;32573;51.290;6.926;2022-11-20T04:02:39;9.07;;;4.40;;
46835;SDS011;32573;51.290;6.926;2022-11-20T04:05:08;14.45;;;6.30;;
46835;SDS011;32573;51.290;6.926;2022-11-20T04:07:38;9.50;;;4.68;;
46835;SDS011;32573;51.290;6.926;2022-11-20T04:10:06;11.05;;;5.20;;
46835;SDS011;32573;51.290;6.926;2022-11-20T04:12:35;10.60;;;4.97;;
46835;SDS011;32573;51.290;6.926;2022-11-20T04:15:04;10.82;;;5.25;;
46835;SDS011;32573;51.290;6.926;2022-11-20T04:17:32;14.18;;;6.93;;
46835;SDS011;32573;51.290;6.926;2022-11-20T04:20:01;11.55;;;4.95;;
46835;SDS011;32573;51.290;6.926;2022-11-20T04:22:29;10.43;;;4.75;;
46835;SDS011;32573;51.290;6.926;2022-11-20T04:24:59;12.15;;;5.63;;
46835;SDS011;32573;51.290;6.926;2022-11-20T04:27:28;10.50;;;5.40;;
46835;SDS011;32573;51.290;6.926;2022-11-20T04:29:56;12.75;;;6.25;;
46835;SDS011;32573;51.290;6.926;2022-11-20T04:32:24;12.70;;;6.43;;
46835;SDS011;32573;51.290;6.926;2022-11-20T04:34:53;12.90;;;6.15;;
46835;SDS011;32573;51.290;6.926;2022-11-20T04:37:21;14.35;;;6.47;;
46835;SDS011;32573;51.290;6.926;2022-11-20T04:39:49;17.13;;;8.02;;
46835;SDS011;32573;51.290;6.926;2022-11-20T04:42:19;17.77;;;8.77;;
46835;SDS011;32573;51.290;6.926;2022-11-20T04:44:57;12.80;;;6.63;;
46835;SDS011;32573;51.290;6.926;2022-11-20T04:47:26;14.50;;;6.35;;
46835;SDS011;32573;51.290;6.926;2022-11-20T04:49:54;12.98;;;6.13;;
46835;SDS011;32573;51.290;6.926;2022-11-20T04:52:23;11.55;;;5.50;;
46835;SDS011;32573;51.290;6.926;2022-11-20T04:54:51;18.73;;;8.90;;
46835;SDS011;32573;51.290;6.926;2022-11-20T04:57:22;12.15;;;6.13;;
46835;SDS011;32573;51.290;6.926;2022-11-20T04:59:50;12.45;;;6.22;;
46835;SDS011;32573;51.290;6.926;2022-11-20T05:02:19;11.52;;;5.75;;
46835;SDS011;32573;51.290;6.926;2022-11-20T05:04:47;13.15;;;6.47;;
46835;SDS011;32573;51.290;6.926;2022-11-20T05:07:16;12.38;;;6.28;;
46835;SDS011;32573;51.290;6.926;2022-11-20T05:09:44;11.73;;;5.50;;
46835;SDS011;32573;51.290;6.926;2022-11-20T05:12:13;10.52;;;5.65;;
46835;SDS011;32573;51.290;6.926;2022-11-20T05:14:43;11.95;;;5.43;;
46835;SDS011;32573;51.290;6.926;2022-11-20T05:17:11;11.77;;;6.20;;
46835;SDS011;32573;51.290;6.926;2022-11-20T05:19:40;10.98;;;5.55;;
46835;SDS011;32573;51.290;6.926;2022-11-20T05:22:08;10.05;;;5.40;;
46835;SDS011;32573;51.290;6.926;2022-11-20T05:24:36;11.27;;;5.88;;
46835;SDS011;32573;51.290;6.926;2022-11-20T05:27:05;10.00;;;4.85;;
46835;SDS011;32573;51.290;6.926;2022-11-20T05:29:33;11.93;;;5.70;;
46835;SDS011;32573;51.290;6.926;2022-11-20T05:32:03;11.55;;;5.90;;
46835;SDS011;32573;51.290;6.926;2022-11-20T05:34:34;9.45;;;4.68;;
46835;SDS011;32573;51.290;6.926;2022-11-20T05:37:02;10.60;;;5.20;;
46835;SDS011;32573;51.290;6.926;2022-11-20T05:39:31;9.75;;;4.90;;
46835;SDS011;32573;51.290;6.926;2022-11-20T05:41:59;8.68;;;4.60;;
46835;SDS011;32573;51.290;6.926;2022-11-20T05:44:45;10.82;;;5.47;;
46835;SDS011;32573;51.290;6.926;2022-11-20T05:47:14;9.93;;;5.35;;
46835;SDS011;32573;51.290;6.926;2022-11-20T05:49:43;10.13;;;4.90;;
46835;SDS011;32573;51.290;6.926;2022-11-20T05:52:11;9.85;;;4.63;;
46835;SDS011;32573;51.290;6.926;2022-11-20T05:54:39;10.68;;;4.90;;
46835;SDS011;32573;51.290;6.926;2022-11-20T05:57:08;12.10;;;5.55;;
46835;SDS011;32573;51.290;6.926;2022-11-20T05:59:36;12.90;;;6.53;;
46835;SDS011;32573;51.290;6.926;2022-11-20T06:02:05;9.57;;;4.85;;
46835;SDS011;32573;51.290;6.926;2022-11-20T06:04:34;10.40;;;5.47;;
46835;SDS011;32573;51.290;6.926;2022-11-20T06:07:04;11.68;;;5.55;;
46835;SDS011;32573;51.290;6.926;2022-11-20T06:09:33;11.05;;;5.30;;
46835;SDS011;32573;51.290;6.926;2022-11-20T06:12:01;11.13;;;5.13;;
46835;SDS011;32573;51.290;6.926;2022-11-20T06:14:30;8.85;;;4.70;;
46835;SDS011;32573;51.290;6.926;2022-11-20T06:16:58;9.55;;;4.68;;
46835;SDS011;32573;51.290;6.926;2022-11-20T06:19:27;18.00;;;8.80;;
46835;SDS011;32573;51.290;6.926;2022-11-20T06:21:56;13.60;;;6.72;;
46835;SDS011;32573;51.290;6.926;2022-11-20T06:24:25;11.57;;;6.15;;
46835;SDS011;32573;51.290;6.926;2022-11-20T06:26:53;10.20;;;5.57;;
46835;SDS011;32573;51.290;6.926;2022-11-20T06:29:21;11.35;;;6.18;;
46835;SDS011;32573;51.290;6.926;2022-11-20T06:31:51;9.60;;;5.35;;
46835;SDS011;32573;51.290;6.926;2022-11-20T06:34:20;9.23;;;5.30;;
46835;SDS011;32573;51.290;6.926;2022-11-20T06:36:48;10.52;;;5.40;;
46835;SDS011;32573;51.290;6.926;2022-11-20T06:39:18;10.45;;;5.53;;
46835;SDS011;32573;51.290;6.926;2022-11-20T06:41:47;10.52;;;5.10;;
46835;SDS011;32573;51.290;6.926;2022-11-20T06:44:19;9.43;;;4.97;;
46835;SDS011;32573;51.290;6.926;2022-11-20T06:46:47;11.02;;;5.32;;
46835;SDS011;32573;51.290;6.926;2022-11-20T06:49:15;10.90;;;5.35;;
46835;SDS011;32573;51.290;6.926;2022-11-20T06:51:44;11.32;;;5.90;;
46835;SDS011;32573;51.290;6.926;2022-11-20T06:54:12;10.70;;;5.40;;
46835;SDS011;32573;51.290;6.926;2022-11-20T06:56:42;10.02;;;5.45;;
46835;SDS011;32573;51.290;6.926;2022-11-20T06:59:14;9.68;;;5.05;;
46835;SDS011;32573;51.290;6.926;2022-11-20T07:01:42;9.02;;;5.10;;
46835;SDS011;32573;51.290;6.926;2022-11-20T07:04:10;10.68;;;5.05;;
46835;SDS011;32573;51.290;6.926;2022-11-20T07:06:39;9.85;;;5.38;;
46835;SDS011;32573;51.290;6.926;2022-11-20T07:09:07;9.98;;;5.07;;
46835;SDS011;32573;51.290;6.926;2022-11-20T07:11:38;9.43;;;4.50;;
46835;SDS011;32573;51.290;6.926;2022-11-20T07:14:08;8.15;;;4.47;;
46835;SDS011;32573;51.290;6.926;2022-11-20T07:16:37;11.38;;;5.13;;
46835;SDS011;32573;51.290;6.926;2022-11-20T07:19:05;8.68;;;4.50;;
46835;SDS011;32573;51.290;6.926;2022-11-20T07:21:34;9.90;;;4.80;;
46835;SDS011;32573;51.290;6.926;2022-11-20T07:24:02;9.43;;;4.88;;
46835;SDS011;32573;51.290;6.926;2022-11-20T07:26:31;8.20;;;4.38;;
46835;SDS011;32573;51.290;6.926;2022-11-20T07:28:59;8.73;;;3.88;;
46835;SDS011;32573;51.290;6.926;2022-11-20T07:31:29;8.40;;;4.15;;
46835;SDS011;32573;51.290;6.926;2022-11-20T07:33:57;9.38;;;4.70;;
46835;SDS011;32573;51.290;6.926;2022-11-20T07:36:25;9.70;;;4.20;;
46835;SDS011;32573;51.290;6.926;2022-11-20T07:38:54;8.27;;;3.83;;
46835;SDS011;32573;51.290;6.926;2022-11-20T07:41:22;7.65;;;4.35;;
46835;SDS011;32573;51.290;6.926;2022-11-20T07:43:50;8.13;;;4.15;;
46835;SDS011;32573;51.290;6.926;2022-11-20T07:46:19;8.32;;;4.22;;
46835;SDS011;32573;51.290;6.926;2022-11-20T07:48:48;8.50;;;3.72;;
46835;SDS011;32573;51.290;6.926;2022-11-20T07:51:17;6.93;;;3.75;;
46835;SDS011;32573;51.290;6.926;2022-11-20T07:53:45;8.30;;;4.10;;
46835;SDS011;32573;51.290;6.926;2022-11-20T07:56:13;7.63;;;4.18;;
46835;SDS011;32573;51.290;6.926;2022-11-20T07:58:42;10.63;;;4.70;;
46835;SDS011;32573;51.290;6.926;2022-11-20T08:01:10;8.88;;;4.43;;
46835;SDS011;32573;51.290;6.926;2022-11-20T08:03:39;8.57;;;4.30;;
46835;SDS011;32573;51.290;6.926;2022-11-20T08:06:08;6.93;;;3.92;;
46835;SDS011;32573;51.290;6.926;2022-11-20T08:08:37;8.57;;;4.15;;
46835;SDS011;32573;51.290;6.926;2022-11-20T08:11:09;9.05;;;4.28;;
46835;SDS011;32573;51.290;6.926;2022-11-20T08:13:55;7.93;;;4.07;;
46835;SDS011;32573;51.290;6.926;2022-11-20T08:16:42;9.20;;;4.40;;
46835;SDS011;32573;51.290;6.926;2022-11-20T08:19:12;8.32;;;4.38;;
46835;SDS011;32573;51.290;6.926;2022-11-20T08:21:42;8.25;;;3.95;;
46835;SDS011;32573;51.290;6.926;2022-11-20T08:24:11;7.43;;;3.90;;
46835;SDS011;32573;51.290;6.926;2022-11-20T08:26:40;8.52;;;4.60;;
46835;SDS011;32573;51.290;6.926;2022-11-20T08:29:08;9.18;;;4.03;;
46835;SDS011;32573;51.290;6.926;2022-11-20T08:31:37;7.60;;;4.00;;
46835;SDS011;32573;51.290;6.926;2022-11-20T08:34:05;9.05;;;4.13;;
46835;SDS011;32573;51.290;6.926;2022-11-20T08:36:36;7.70;;;3.97;;
46835;SDS011;32573;51.290;6.926;2022-11-20T08:39:06;8.32;;;4.00;;
46835;SDS011;32573;51.290;6.926;2022-11-20T08:41:34;7.53;;;4.13;;
46835;SDS011;32573;51.290;6.926;2022-11-20T08:44:04;7.00;;;3.50;;
46835;SDS011;32573;51.290;6.926;2022-11-20T08:46:34;6.85;;;3.60;;
46835;SDS011;32573;51.290;6.926;2022-11-20T08:49:04;7.00;;;3.35;;
46835;SDS011;32573;51.290;6.926;2022-11-20T08:51:34;6.35;;;3.33;;
46835;SDS011;32573;51.290;6.926;2022-11-20T08:54:03;8.20;;;4.22;;
46835;SDS011;32573;51.290;6.926;2022-11-20T08:56:33;7.47;;;3.80;;
46835;SDS011;32573;51.290;6.926;2022-11-20T08:59:02;9.38;;;5.28;;
46835;SDS011;32573;51.290;6.926;2022-11-20T09:01:50;7.20;;;3.78;;
46835;SDS011;32573;51.290;6.926;2022-11-20T09:04:19;7.10;;;3.53;;
46835;SDS011;32573;51.290;6.926;2022-11-20T09:06:47;6.72;;;3.30;;
46835;SDS011;32573;51.290;6.926;2022-11-20T09:09:18;6.93;;;3.50;;
46835;SDS011;32573;51.290;6.926;2022-11-20T09:11:48;10.77;;;4.55;;
46835;SDS011;32573;51.290;6.926;2022-11-20T09:14:17;9.60;;;4.57;;
46835;SDS011;32573;51.290;6.926;2022-11-20T09:16:46;8.68;;;4.38;;
46835;SDS011;32573;51.290;6.926;2022-11-20T09:19:14;6.80;;;3.65;;
46835;SDS011;32573;51.290;6.926;2022-11-20T09:22:02;7.45;;;3.67;;
46835;SDS011;32573;51.290;6.926;2022-11-20T09:24:31;7.43;;;4.00;;
46835;SDS011;32573;51.290;6.926;2022-11-20T09:27:02;7.63;;;3.88;;
46835;SDS011;32573;51.290;6.926;2022-11-20T09:29:31;7.88;;;3.80;;
46835;SDS011;32573;51.290;6.926;2022-11-20T09:32:00;7.75;;;4.20;;
46835;SDS011;32573;51.290;6.926;2022-11-20T09:34:28;6.38;;;3.20;;
46835;SDS011;32573;51.290;6.926;2022-11-20T09:36:56;6.85;;;3.58;;
46835;SDS011;32573;51.290;6.926;2022-11-20T09:39:30;7.50;;;3.67;;
46835;SDS011;32573;51.290;6.926;2022-11-20T09:42:03;5.72;;;3.15;;
46835;SDS011;32573;51.290;6.926;2022-11-20T09:44:50;6.70;;;3.20;;
46835;SDS011;32573;51.290;6.926;2022-11-20T09:47:32;7.53;;;3.67;;
46835;SDS011;32573;51.290;6.926;2022-11-20T09:50:19;7.15;;;3.38;;
46835;SDS011;32573;51.290;6.926;2022-11-20T09:52:57;6.85;;;3.25;;
46835;SDS011;32573;51.290;6.926;2022-11-20T09:55:38;6.63;;;3.33;;
46835;SDS011;32573;51.290;6.926;2022-11-20T09:58:12;6.25;;;3.08;;
46835;SDS011;32573;51.290;6.926;2022-11-20T10:00:46;6.00;;;2.97;;
46835;SDS011;32573;51.290;6.926;2022-11-20T10:03:16;5.80;;;2.75;;
46835;SDS011;32573;51.290;6.926;2022-11-20T10:05:50;6.55;;;3.30;;
46835;SDS011;32573;51.290;6.926;2022-11-20T10:08:22;7.45;;;3.72;;
46835;SDS011;32573;51.290;6.926;2022-11-20T10:10:57;6.80;;;3.10;;
46835;SDS011;32573;51.290;6.926;2022-11-20T10:13:38;7.88;;;3.92;;
46835;SDS011;32573;51.290;6.926;2022-11-20T10:16:21;7.60;;;3.50;;
46835;SDS011;32573;51.290;6.926;2022-11-20T10:19:10;9.07;;;4.40;;
46835;SDS011;32573;51.290;6.926;2022-11-20T10:21:54;7.88;;;3.70;;
46835;SDS011;32573;51.290;6.926;2022-11-20T10:24:42;9.68;;;4.47;;
46835;SDS011;32573;51.290;6.926;2022-11-20T10:27:23;7.72;;;3.80;;
46835;SDS011;32573;51.290;6.926;2022-11-20T10:30:06;7.30;;;3.70;;
46835;SDS011;32573;51.290;6.926;2022-11-20T10:32:40;7.40;;;3.40;;
46835;SDS011;32573;51.290;6.926;2022-11-20T10:35:16;7.00;;;3.75;;
46835;SDS011;32573;51.290;6.926;2022-11-20T10:37:51;8.75;;;4.25;;
46835;SDS011;32573;51.290;6.926;2022-11-20T10:40:26;8.43;;;3.92;;
46835;SDS011;32573;51.290;6.926;2022-11-20T10:42:59;8.32;;;4.10;;
46835;SDS011;32573;51.290;6.926;2022-11-20T10:45:38;8.10;;;4.00;;
46835;SDS011;32573;51.290;6.926;2022-11-20T10:48:15;11.05;;;5.72;;
46835;SDS011;32573;51.290;6.926;2022-11-20T10:53:43;9.38;;;4.30;;
46835;SDS011;32573;51.290;6.926;2022-11-20T10:56:17;7.97;;;4.05;;
46835;SDS011;32573;51.290;6.926;2022-11-20T10:58:52;9.00;;;4.20;;
46835;SDS011;32573;51.290;6.926;2022-11-20T11:01:30;9.68;;;4.60;;
46835;SDS011;32573;51.290;6.926;2022-11-20T11:03:58;10.10;;;4.90;;
46835;SDS011;32573;51.290;6.926;2022-11-20T11:06:29;8.75;;;4.90;;
46835;SDS011;32573;51.290;6.926;2022-11-20T11:09:04;10.35;;;4.80;;
46835;SDS011;32573;51.290;6.926;2022-11-20T11:11:39;9.85;;;5.00;;
46835;SDS011;32573;51.290;6.926;2022-11-20T11:14:11;11.73;;;5.55;;
46835;SDS011;32573;51.290;6.926;2022-11-20T11:16:49;9.95;;;4.75;;
46835;SDS011;32573;51.290;6.926;2022-11-20T11:19:19;8.93;;;4.47;;
46835;SDS011;32573;51.290;6.926;2022-11-20T11:21:49;13.35;;;6.13;;
46835;SDS011;32573;51.290;6.926;2022-11-20T11:24:22;14.77;;;7.18;;
46835;SDS011;32573;51.290;6.926;2022-11-20T11:27:11;12.45;;;5.57;;
46835;SDS011;32573;51.290;6.926;2022-11-20T11:29:44;11.30;;;5.55;;
46835;SDS011;32573;51.290;6.926;2022-11-20T11:32:15;10.70;;;5.10;;
46835;SDS011;32573;51.290;6.926;2022-11-20T11:34:58;11.50;;;5.93;;
46835;SDS011;32573;51.290;6.926;2022-11-20T11:37:28;11.70;;;6.15;;
46835;SDS011;32573;51.290;6.926;2022-11-20T11:40:03;9.77;;;5.40;;
46835;SDS011;32573;51.290;6.926;2022-11-20T11:42:52;9.82;;;4.80;;
46835;SDS011;32573;51.290;6.926;2022-11-20T11:45:24;10.02;;;5.05;;
46835;SDS011;32573;51.290;6.926;2022-11-20T11:47:55;8.75;;;4.82;;
46835;SDS011;32573;51.290;6.926;2022-11-20T11:50:26;10.02;;;4.80;;
46835;SDS011;32573;51.290;6.926;2022-11-20T11:53:04;9.50;;;4.97;;
46835;SDS011;32573;51.290;6.926;2022-11-20T11:55:37;11.15;;;5.45;;
46835;SDS011;32573;51.290;6.926;2022-11-20T11:58:16;9.60;;;4.80;;
46835;SDS011;32573;51.290;6.926;2022-11-20T12:00:57;10.95;;;5.25;;
46835;SDS011;32573;51.290;6.926;2022-11-20T12:03:34;11.20;;;6.15;;
46835;SDS011;32573;51.290;6.926;2022-11-20T12:06:05;12.13;;;5.93;;
46835;SDS011;32573;51.290;6.926;2022-11-20T12:11:12;9.30;;;4.65;;
46835;SDS011;32573;51.290;6.926;2022-11-20T12:16:19;11.27;;;5.47;;
46835;SDS011;32573;51.290;6.926;2022-11-20T12:18:51;10.25;;;5.45;;
46835;SDS011;32573;51.290;6.926;2022-11-20T12:21:23;13.82;;;6.70;;
46835;SDS011;32573;51.290;6.926;2022-11-20T12:24:02;11.90;;;5.80;;
46835;SDS011;32573;51.290;6.926;2022-11-20T12:26:43;11.82;;;6.00;;
46835;SDS011;32573;51.290;6.926;2022-11-20T12:29:24;10.95;;;5.90;;
46835;SDS011;32573;51.290;6.926;2022-11-20T12:32:06;12.82;;;6.32;;
46835;SDS011;32573;51.290;6.926;2022-11-20T12:34:58;11.05;;;5.68;;
46835;SDS011;32573;51.290;6.926;2022-11-20T12:37:38;12.20;;;5.97;;
46835;SDS011;32573;51.290;6.926;2022-11-20T12:40:23;10.90;;;5.15;;
46835;SDS011;32573;51.290;6.926;2022-11-20T12:43:01;13.68;;;7.05;;
46835;SDS011;32573;51.290;6.926;2022-11-20T12:46:04;12.50;;;6.65;;
46835;SDS011;32573;51.290;6.926;2022-11-20T12:48:41;15.73;;;8.23;;
46835;SDS011;32573;51.290;6.926;2022-11-20T12:51:36;13.63;;;6.90;;
46835;SDS011;32573;51.290;6.926;2022-11-20T12:57:18;10.73;;;5.57;;
46835;SDS011;32573;51.290;6.926;2022-11-20T13:02:58;11.15;;;5.82;;
46835;SDS011;32573;51.290;6.926;2022-11-20T13:05:37;12.63;;;6.40;;
46835;SDS011;32573;51.290;6.926;2022-11-20T13:08:17;11.73;;;6.45;;
46835;SDS011;32573;51.290;6.926;2022-11-20T13:13:25;11.10;;;5.68;;
46835;SDS011;32573;51.290;6.926;2022-11-20T13:16:04;12.85;;;5.82;;
46835;SDS011;32573;51.290;6.926;2022-11-20T13:18:40;9.45;;;5.10;;
46835;SDS011;32573;51.290;6.926;2022-11-20T13:21:15;10.45;;;4.78;;
46835;SDS011;32573;51.290;6.926;2022-11-20T13:23:46;11.80;;;6.18;;
46835;SDS011;32573;51.290;6.926;2022-11-20T13:26:16;11.55;;;5.30;;
46835;SDS011;32573;51.290;6.926;2022-11-20T13:28:59;11.23;;;5.57;;
46835;SDS011;32573;51.290;6.926;2022-11-20T13:31:31;8.60;;;4.47;;
46835;SDS011;32573;51.290;6.926;2022-11-20T13:34:02;8.50;;;4.70;;
46835;SDS011;32573;51.290;6.926;2022-11-20T13:36:32;9.38;;;5.00;;
46835;SDS011;32573;51.290;6.926;2022-11-20T13:39:04;8.40;;;4.28;;
46835;SDS011;32573;51.290;6.926;2022-11-20T13:41:33;9.88;;;5.15;;
46835;SDS011;32573;51.290;6.926;2022-11-20T13:44:06;10.80;;;5.38;;
46835;SDS011;32573;51.290;6.926;2022-11-20T13:46:41;11.55;;;5.47;;
46835;SDS011;32573;51.290;6.926;2022-11-20T13:49:16;10.88;;;5.90;;
46835;SDS011;32573;51.290;6.926;2022-11-20T13:51:56;11.80;;;6.07;;
46835;SDS011;32573;51.290;6.926;2022-11-20T13:54:43;11.70;;;5.85;;
46835;SDS011;32573;51.290;6.926;2022-11-20T13:57:31;13.77;;;6.20;;
46835;SDS011;32573;51.290;6.926;2022-11-20T14:00:12;10.35;;;5.55;;
46835;SDS011;32573;51.290;6.926;2022-11-20T14:02:42;8.77;;;4.88;;
46835;SDS011;32573;51.290;6.926;2022-11-20T14:05:17;11.68;;;5.57;;
46835;SDS011;32573;51.290;6.926;2022-11-20T14:07:49;9.88;;;4.68;;
46835;SDS011;32573;51.290;6.926;2022-11-20T14:10:22;12.07;;;5.75;;
46835;SDS011;32573;51.290;6.926;2022-11-20T14:12:58;20.10;;;9.23;;
46835;SDS011;32573;51.290;6.926;2022-11-20T14:15:28;11.57;;;6.10;;
46835;SDS011;32573;51.290;6.926;2022-11-20T14:17:57;12.57;;;6.72;;
46835;SDS011;32573;51.290;6.926;2022-11-20T14:20:27;10.85;;;5.70;;
46835;SDS011;32573;51.290;6.926;2022-11-20T14:22:58;11.82;;;5.68;;
46835;SDS011;32573;51.290;6.926;2022-11-20T14:25:27;11.07;;;5.53;;
46835;SDS011;32573;51.290;6.926;2022-11-20T14:27:58;11.10;;;5.78;;
46835;SDS011;32573;51.290;6.926;2022-11-20T14:30:28;12.65;;;5.95;;
46835;SDS011;32573;51.290;6.926;2022-11-20T14:33:05;12.15;;;5.95;;
46835;SDS011;32573;51.290;6.926;2022-11-20T14:35:35;11.27;;;5.47;;
46835;SDS011;32573;51.290;6.926;2022-11-20T14:38:08;13.02;;;6.10;;
46835;SDS011;32573;51.290;6.926;2022-11-20T14:40:42;12.48;;;6.40;;
46835;SDS011;32573;51.290;6.926;2022-11-20T14:43:18;11.43;;;5.78;;
46835;SDS011;32573;51.290;6.926;2022-11-20T14:45:52;11.45;;;5.57;;
46835;SDS011;32573;51.290;6.926;2022-11-20T14:48:28;12.13;;;6.10;;
46835;SDS011;32573;51.290;6.926;2022-11-20T14:50:59;12.63;;;6.43;;
46835;SDS011;32573;51.290;6.926;2022-11-20T14:53:28;11.80;;;6.22;;
46835;SDS011;32573;51.290;6.926;2022-11-20T14:55:58;12.20;;;5.88;;
46835;SDS011;32573;51.290;6.926;2022-11-20T14:58:29;12.30;;;6.50;;
46835;SDS011;32573;51.290;6.926;2022-11-20T15:00:59;13.85;;;7.30;;
46835;SDS011;32573;51.290;6.926;2022-11-20T15:03:32;17.60;;;9.23;;
46835;SDS011;32573;51.290;6.926;2022-11-20T15:06:02;12.75;;;6.68;;
46835;SDS011;32573;51.290;6.926;2022-11-20T15:08:32;14.55;;;7.15;;
46835;SDS011;32573;51.290;6.926;2022-11-20T15:11:03;12.68;;;6.50;;
46835;SDS011;32573;51.290;6.926;2022-11-20T15:13:45;14.02;;;7.50;;
46835;SDS011;32573;51.290;6.926;2022-11-20T15:16:15;12.40;;;6.65;;
46835;SDS011;32573;51.290;6.926;2022-11-20T15:18:46;11.25;;;5.97;;
46835;SDS011;32573;51.290;6.926;2022-11-20T15:21:15;12.50;;;6.72;;
46835;SDS011;32573;51.290;6.926;2022-11-20T15:23:45;10.07;;;5.25;;
46835;SDS011;32573;51.290;6.926;2022-11-20T15:26:15;10.20;;;6.00;;
46835;SDS011;32573;51.290;6.926;2022-11-20T15:28:48;12.30;;;6.05;;
46835;SDS011;32573;51.290;6.926;2022-11-20T15:31:18;12.05;;;6.35;;